sensor_id;sensor_type;location;lat;lon;timestamp;pressure;altitude;pressure_sealevel;temperature;humidity
53651;BME280;39552;45.776;15.892;2022-08-01T00:01:49;100265.31;;;20.34;100.00
53651;BME280;39552;45.776;15.892;2022-08-01T00:04:16;100277.06;;;20.36;100.00
53651;BME280;39552;45.776;15.892;2022-08-01T00:06:43;100279.31;;;20.40;100.00
53651;BME280;39552;45.776;15.892;2022-08-01T00:09:10;100268.69;;;20.28;100.00
53651;BME280;39552;45.776;15.892;2022-08-01T00:11:49;100283.91;;;20.22;100.00
53651;BME280;39552;45.776;15.892;2022-08-01T00:14:25;100272.47;;;20.27;100.00
53651;BME280;39552;45.776;15.892;2022-08-01T00:16:59;100273.59;;;20.06;100.00
53651;BME280;39552;45.776;15.892;2022-08-01T00:19:32;100281.72;;;20.26;100.00
53651;BME280;39552;45.776;15.892;2022-08-01T00:21:59;100277.59;;;20.12;100.00
53651;BME280;39552;45.776;15.892;2022-08-01T00:24:27;100279.44;;;20.21;100.00
53651;BME280;39552;45.776;15.892;2022-08-01T00:26:54;100274.19;;;20.28;100.00
53651;BME280;39552;45.776;15.892;2022-08-01T00:29:20;100271.66;;;20.16;100.00
53651;BME280;39552;45.776;15.892;2022-08-01T00:32:08;100276.72;;;19.83;100.00
53651;BME280;39552;45.776;15.892;2022-08-01T00:34:35;100270.31;;;19.93;100.00
53651;BME280;39552;45.776;15.892;2022-08-01T00:37:02;100285.44;;;20.07;100.00
53651;BME280;39552;45.776;15.892;2022-08-01T00:39:29;100279.09;;;20.06;100.00
53651;BME280;39552;45.776;15.892;2022-08-01T00:41:56;100272.41;;;20.09;100.00
53651;BME280;39552;45.776;15.892;2022-08-01T00:44:27;100264.06;;;20.00;100.00
53651;BME280;39552;45.776;15.892;2022-08-01T00:46:53;100283.88;;;20.04;100.00
53651;BME280;39552;45.776;15.892;2022-08-01T00:49:22;100286.28;;;20.17;100.00
53651;BME280;39552;45.776;15.892;2022-08-01T00:51:48;100277.91;;;20.09;100.00
53651;BME280;39552;45.776;15.892;2022-08-01T00:54:15;100291.34;;;20.12;100.00
53651;BME280;39552;45.776;15.892;2022-08-01T00:56:42;100280.13;;;20.05;100.00
53651;BME280;39552;45.776;15.892;2022-08-01T00:59:11;100286.72;;;20.12;100.00
53651;BME280;39552;45.776;15.892;2022-08-01T01:01:40;100286.97;;;20.19;100.00
53651;BME280;39552;45.776;15.892;2022-08-01T01:04:15;100292.19;;;20.12;100.00
53651;BME280;39552;45.776;15.892;2022-08-01T01:06:48;100260.63;;;19.98;100.00
53651;BME280;39552;45.776;15.892;2022-08-01T01:09:32;100285.56;;;20.15;100.00
53651;BME280;39552;45.776;15.892;2022-08-01T01:12:06;100286.09;;;20.18;100.00
53651;BME280;39552;45.776;15.892;2022-08-01T01:14:39;100278.66;;;20.01;100.00
53651;BME280;39552;45.776;15.892;2022-08-01T01:17:08;100278.94;;;20.08;100.00
53651;BME280;39552;45.776;15.892;2022-08-01T01:19:39;100280.31;;;19.94;100.00
53651;BME280;39552;45.776;15.892;2022-08-01T01:22:19;100286.94;;;19.91;100.00
53651;BME280;39552;45.776;15.892;2022-08-01T01:25:02;100277.50;;;20.03;100.00
53651;BME280;39552;45.776;15.892;2022-08-01T01:27:39;100284.81;;;19.85;100.00
53651;BME280;39552;45.776;15.892;2022-08-01T01:30:10;100288.41;;;19.86;100.00
53651;BME280;39552;45.776;15.892;2022-08-01T01:32:39;100286.59;;;19.76;100.00
53651;BME280;39552;45.776;15.892;2022-08-01T01:35:22;100281.69;;;19.60;100.00
53651;BME280;39552;45.776;15.892;2022-08-01T01:38:00;100278.78;;;19.62;100.00
53651;BME280;39552;45.776;15.892;2022-08-01T01:40:29;100282.25;;;19.74;100.00
53651;BME280;39552;45.776;15.892;2022-08-01T01:42:56;100282.84;;;19.58;100.00
53651;BME280;39552;45.776;15.892;2022-08-01T01:45:26;100288.66;;;19.45;100.00
53651;BME280;39552;45.776;15.892;2022-08-01T01:47:54;100281.16;;;19.57;100.00
53651;BME280;39552;45.776;15.892;2022-08-01T01:50:21;100287.06;;;19.52;100.00
53651;BME280;39552;45.776;15.892;2022-08-01T01:52:50;100285.16;;;19.53;100.00
53651;BME280;39552;45.776;15.892;2022-08-01T01:55:19;100288.50;;;19.47;100.00
53651;BME280;39552;45.776;15.892;2022-08-01T01:57:48;100291.72;;;19.42;100.00
53651;BME280;39552;45.776;15.892;2022-08-01T02:00:17;100283.75;;;19.49;100.00
53651;BME280;39552;45.776;15.892;2022-08-01T02:02:45;100284.34;;;19.42;100.00
53651;BME280;39552;45.776;15.892;2022-08-01T02:05:13;100284.34;;;19.42;100.00
53651;BME280;39552;45.776;15.892;2022-08-01T02:07:40;100274.06;;;19.54;100.00
53651;BME280;39552;45.776;15.892;2022-08-01T02:10:09;100276.44;;;19.30;100.00
53651;BME280;39552;45.776;15.892;2022-08-01T02:12:39;100283.94;;;19.37;100.00
53651;BME280;39552;45.776;15.892;2022-08-01T02:15:09;100276.44;;;19.39;100.00
53651;BME280;39552;45.776;15.892;2022-08-01T02:17:40;100280.59;;;19.43;100.00
53651;BME280;39552;45.776;15.892;2022-08-01T02:20:10;100270.63;;;19.42;100.00
53651;BME280;39552;45.776;15.892;2022-08-01T02:22:41;100275.38;;;19.50;100.00
53651;BME280;39552;45.776;15.892;2022-08-01T02:25:15;100230.84;;;19.19;100.00
53651;BME280;39552;45.776;15.892;2022-08-01T02:27:51;100269.06;;;19.30;100.00
53651;BME280;39552;45.776;15.892;2022-08-01T02:30:21;100257.72;;;19.05;100.00
53651;BME280;39552;45.776;15.892;2022-08-01T02:32:52;100265.69;;;18.89;100.00
53651;BME280;39552;45.776;15.892;2022-08-01T02:35:25;100260.31;;;18.78;100.00
53651;BME280;39552;45.776;15.892;2022-08-01T02:37:53;100273.84;;;18.70;100.00
53651;BME280;39552;45.776;15.892;2022-08-01T02:40:20;100277.28;;;18.62;100.00
53651;BME280;39552;45.776;15.892;2022-08-01T02:42:50;100262.16;;;18.67;100.00
53651;BME280;39552;45.776;15.892;2022-08-01T02:45:18;100262.03;;;18.69;100.00
53651;BME280;39552;45.776;15.892;2022-08-01T02:47:45;100269.38;;;18.69;100.00
53651;BME280;39552;45.776;15.892;2022-08-01T02:50:14;100273.13;;;18.67;100.00
53651;BME280;39552;45.776;15.892;2022-08-01T02:52:46;100272.00;;;18.70;100.00
53651;BME280;39552;45.776;15.892;2022-08-01T02:55:14;100271.00;;;18.91;100.00
53651;BME280;39552;45.776;15.892;2022-08-01T02:57:44;100270.72;;;18.94;100.00
53651;BME280;39552;45.776;15.892;2022-08-01T03:00:23;100263.75;;;18.70;100.00
53651;BME280;39552;45.776;15.892;2022-08-01T03:02:52;100271.25;;;18.78;100.00
53651;BME280;39552;45.776;15.892;2022-08-01T03:05:20;100262.19;;;18.87;100.00
53651;BME280;39552;45.776;15.892;2022-08-01T03:07:49;100262.88;;;18.70;100.00
53651;BME280;39552;45.776;15.892;2022-08-01T03:10:18;100266.50;;;18.70;100.00
53651;BME280;39552;45.776;15.892;2022-08-01T03:12:46;100272.25;;;18.57;100.00
53651;BME280;39552;45.776;15.892;2022-08-01T03:15:15;100270.97;;;18.71;100.00
53651;BME280;39552;45.776;15.892;2022-08-01T03:17:44;100273.72;;;18.81;100.00
53651;BME280;39552;45.776;15.892;2022-08-01T03:20:13;100266.41;;;18.91;100.00
53651;BME280;39552;45.776;15.892;2022-08-01T03:22:42;100269.28;;;18.80;100.00
53651;BME280;39552;45.776;15.892;2022-08-01T03:25:11;100285.28;;;18.94;100.00
53651;BME280;39552;45.776;15.892;2022-08-01T03:27:40;100268.81;;;18.94;100.00
53651;BME280;39552;45.776;15.892;2022-08-01T03:30:09;100267.38;;;19.10;100.00
53651;BME280;39552;45.776;15.892;2022-08-01T03:32:36;100268.56;;;18.88;100.00
53651;BME280;39552;45.776;15.892;2022-08-01T03:35:03;100279.75;;;18.55;100.00
53651;BME280;39552;45.776;15.892;2022-08-01T03:37:34;100278.31;;;18.51;100.00
53651;BME280;39552;45.776;15.892;2022-08-01T03:40:07;100281.47;;;18.46;100.00
53651;BME280;39552;45.776;15.892;2022-08-01T03:42:41;100278.88;;;18.45;100.00
53651;BME280;39552;45.776;15.892;2022-08-01T03:45:19;100273.41;;;18.55;100.00
53651;BME280;39552;45.776;15.892;2022-08-01T03:47:49;100255.94;;;18.65;100.00
53651;BME280;39552;45.776;15.892;2022-08-01T03:50:20;100233.03;;;18.37;100.00
53651;BME280;39552;45.776;15.892;2022-08-01T03:52:49;100280.31;;;18.49;100.00
53651;BME280;39552;45.776;15.892;2022-08-01T03:55:18;100271.66;;;18.34;100.00
53651;BME280;39552;45.776;15.892;2022-08-01T03:57:47;100270.38;;;18.48;100.00
53651;BME280;39552;45.776;15.892;2022-08-01T04:00:14;100266.34;;;18.62;100.00
53651;BME280;39552;45.776;15.892;2022-08-01T04:02:41;100270.09;;;18.51;100.00
53651;BME280;39552;45.776;15.892;2022-08-01T04:05:09;100274.28;;;18.65;100.00
53651;BME280;39552;45.776;15.892;2022-08-01T04:07:36;100279.66;;;18.86;100.00
53651;BME280;39552;45.776;15.892;2022-08-01T04:10:03;100274.03;;;18.97;100.00
53651;BME280;39552;45.776;15.892;2022-08-01T04:12:31;100268.22;;;19.10;100.00
53651;BME280;39552;45.776;15.892;2022-08-01T04:14:59;100254.97;;;19.05;100.00
53651;BME280;39552;45.776;15.892;2022-08-01T04:17:26;100257.44;;;18.99;100.00
53651;BME280;39552;45.776;15.892;2022-08-01T04:19:53;100273.59;;;18.82;100.00
53651;BME280;39552;45.776;15.892;2022-08-01T04:22:20;100268.34;;;18.70;100.00
53651;BME280;39552;45.776;15.892;2022-08-01T04:24:49;100272.97;;;18.79;100.00
53651;BME280;39552;45.776;15.892;2022-08-01T04:27:24;100271.00;;;18.91;100.00
53651;BME280;39552;45.776;15.892;2022-08-01T04:30:14;100269.09;;;18.72;100.00
53651;BME280;39552;45.776;15.892;2022-08-01T04:32:46;100271.72;;;18.83;100.00
53651;BME280;39552;45.776;15.892;2022-08-01T04:35:15;100272.16;;;18.88;100.00
53651;BME280;39552;45.776;15.892;2022-08-01T04:38:05;100282.66;;;19.22;100.00
53651;BME280;39552;45.776;15.892;2022-08-01T04:40:33;100264.50;;;19.11;100.00
53651;BME280;39552;45.776;15.892;2022-08-01T04:43:01;100266.06;;;19.14;100.00
53651;BME280;39552;45.776;15.892;2022-08-01T04:45:29;100272.69;;;19.21;100.00
53651;BME280;39552;45.776;15.892;2022-08-01T04:47:57;100237.91;;;19.12;100.00
53651;BME280;39552;45.776;15.892;2022-08-01T04:50:24;100284.69;;;19.30;100.00
53651;BME280;39552;45.776;15.892;2022-08-01T04:52:51;100254.34;;;19.21;100.00
53651;BME280;39552;45.776;15.892;2022-08-01T04:55:18;100274.25;;;19.33;100.00
53651;BME280;39552;45.776;15.892;2022-08-01T04:57:46;100269.63;;;19.43;100.00
53651;BME280;39552;45.776;15.892;2022-08-01T05:00:14;100273.19;;;19.54;100.00
53651;BME280;39552;45.776;15.892;2022-08-01T05:02:42;100271.88;;;19.58;100.00
53651;BME280;39552;45.776;15.892;2022-08-01T05:05:09;100277.78;;;19.63;100.00
53651;BME280;39552;45.776;15.892;2022-08-01T05:07:39;100277.31;;;19.77;100.00
53651;BME280;39552;45.776;15.892;2022-08-01T05:10:11;100279.19;;;19.87;100.00
53651;BME280;39552;45.776;15.892;2022-08-01T05:12:37;100277.56;;;19.94;100.00
53651;BME280;39552;45.776;15.892;2022-08-01T05:15:06;100277.56;;;19.94;100.00
53651;BME280;39552;45.776;15.892;2022-08-01T05:17:40;100278.06;;;20.07;100.00
53651;BME280;39552;45.776;15.892;2022-08-01T05:20:09;100275.00;;;20.10;100.00
53651;BME280;39552;45.776;15.892;2022-08-01T05:22:36;100271.06;;;20.22;100.00
53651;BME280;39552;45.776;15.892;2022-08-01T05:25:04;100261.28;;;20.38;100.00
53651;BME280;39552;45.776;15.892;2022-08-01T05:27:31;100253.19;;;20.36;100.00
53651;BME280;39552;45.776;15.892;2022-08-01T05:29:59;100249.56;;;20.36;100.00
53651;BME280;39552;45.776;15.892;2022-08-01T05:32:26;100264.09;;;20.28;100.00
53651;BME280;39552;45.776;15.892;2022-08-01T05:34:52;100271.59;;;20.26;100.00
53651;BME280;39552;45.776;15.892;2022-08-01T05:37:20;100254.88;;;20.19;100.00
53651;BME280;39552;45.776;15.892;2022-08-01T05:39:47;100267.78;;;20.37;100.00
53651;BME280;39552;45.776;15.892;2022-08-01T05:42:14;100269.91;;;20.43;100.00
53651;BME280;39552;45.776;15.892;2022-08-01T05:44:41;100269.97;;;20.51;100.00
53651;BME280;39552;45.776;15.892;2022-08-01T05:47:07;100255.72;;;20.48;100.00
53651;BME280;39552;45.776;15.892;2022-08-01T05:49:34;100261.03;;;20.49;100.00
53651;BME280;39552;45.776;15.892;2022-08-01T05:52:01;100267.75;;;20.65;100.00
53651;BME280;39552;45.776;15.892;2022-08-01T05:54:30;100249.59;;;20.72;100.00
53651;BME280;39552;45.776;15.892;2022-08-01T05:56:56;100267.34;;;20.77;100.00
53651;BME280;39552;45.776;15.892;2022-08-01T05:59:23;100277.34;;;20.96;100.00
53651;BME280;39552;45.776;15.892;2022-08-01T06:01:50;100274.25;;;20.99;100.00
53651;BME280;39552;45.776;15.892;2022-08-01T06:04:17;100277.00;;;20.99;100.00
53651;BME280;39552;45.776;15.892;2022-08-01T06:06:43;100280.22;;;21.13;100.00
53651;BME280;39552;45.776;15.892;2022-08-01T06:09:10;100277.47;;;21.13;100.00
53651;BME280;39552;45.776;15.892;2022-08-01T06:11:39;100279.66;;;21.09;100.00
53651;BME280;39552;45.776;15.892;2022-08-01T06:14:06;100269.84;;;21.07;100.00
53651;BME280;39552;45.776;15.892;2022-08-01T06:16:33;100274.16;;;21.09;100.00
53651;BME280;39552;45.776;15.892;2022-08-01T06:18:59;100270.78;;;20.97;100.00
53651;BME280;39552;45.776;15.892;2022-08-01T06:21:26;100281.34;;;21.02;100.00
53651;BME280;39552;45.776;15.892;2022-08-01T06:23:53;100278.00;;;21.16;100.00
53651;BME280;39552;45.776;15.892;2022-08-01T06:26:20;100286.41;;;21.15;100.00
53651;BME280;39552;45.776;15.892;2022-08-01T06:28:48;100279.97;;;21.24;100.00
53651;BME280;39552;45.776;15.892;2022-08-01T06:31:15;100290.16;;;21.32;100.00
53651;BME280;39552;45.776;15.892;2022-08-01T06:36:08;100270.56;;;21.53;100.00
53651;BME280;39552;45.776;15.892;2022-08-01T06:38:35;100276.19;;;21.69;100.00
53651;BME280;39552;45.776;15.892;2022-08-01T06:41:01;100288.94;;;21.78;100.00
53651;BME280;39552;45.776;15.892;2022-08-01T06:43:28;100286.97;;;21.89;100.00
53651;BME280;39552;45.776;15.892;2022-08-01T06:45:56;100283.91;;;22.00;99.65
53651;BME280;39552;45.776;15.892;2022-08-01T06:48:23;100292.22;;;22.08;97.73
53651;BME280;39552;45.776;15.892;2022-08-01T06:50:50;100292.41;;;22.15;99.17
53651;BME280;39552;45.776;15.892;2022-08-01T06:53:17;100290.88;;;22.21;95.09
53651;BME280;39552;45.776;15.892;2022-08-01T06:55:43;100290.78;;;22.30;94.64
53651;BME280;39552;45.776;15.892;2022-08-01T06:58:10;100283.56;;;22.37;93.77
53651;BME280;39552;45.776;15.892;2022-08-01T07:00:37;100285.19;;;22.56;93.05
53651;BME280;39552;45.776;15.892;2022-08-01T07:03:05;100275.00;;;22.65;95.31
53651;BME280;39552;45.776;15.892;2022-08-01T07:05:32;100279.69;;;22.73;93.35
53651;BME280;39552;45.776;15.892;2022-08-01T07:07:58;100266.06;;;22.71;92.91
53651;BME280;39552;45.776;15.892;2022-08-01T07:10:25;100280.56;;;22.90;91.18
53651;BME280;39552;45.776;15.892;2022-08-01T07:12:52;100277.13;;;22.96;87.91
53651;BME280;39552;45.776;15.892;2022-08-01T07:15:19;100265.22;;;22.95;86.29
53651;BME280;39552;45.776;15.892;2022-08-01T07:17:45;100271.81;;;23.19;84.20
53651;BME280;39552;45.776;15.892;2022-08-01T07:20:13;100270.25;;;23.16;85.77
53651;BME280;39552;45.776;15.892;2022-08-01T07:22:42;100264.19;;;23.46;80.21
53651;BME280;39552;45.776;15.892;2022-08-01T07:25:13;100270.34;;;23.72;80.02
53651;BME280;39552;45.776;15.892;2022-08-01T07:27:39;100267.41;;;23.74;77.75
53651;BME280;39552;45.776;15.892;2022-08-01T07:30:07;100258.75;;;23.85;74.25
53651;BME280;39552;45.776;15.892;2022-08-01T07:32:34;100250.25;;;23.95;73.26
53651;BME280;39552;45.776;15.892;2022-08-01T07:35:01;100250.38;;;24.10;73.79
53651;BME280;39552;45.776;15.892;2022-08-01T07:37:29;100248.78;;;24.16;69.06
53651;BME280;39552;45.776;15.892;2022-08-01T07:40:15;100241.81;;;24.28;65.99
53651;BME280;39552;45.776;15.892;2022-08-01T07:42:42;100242.22;;;24.48;62.29
53651;BME280;39552;45.776;15.892;2022-08-01T07:45:09;100245.47;;;24.60;62.13
53651;BME280;39552;45.776;15.892;2022-08-01T07:47:36;100238.41;;;24.80;62.98
53651;BME280;39552;45.776;15.892;2022-08-01T07:50:04;100242.22;;;24.79;62.70
53651;BME280;39552;45.776;15.892;2022-08-01T07:52:33;100242.56;;;24.99;62.42
53651;BME280;39552;45.776;15.892;2022-08-01T07:55:00;100248.16;;;25.14;62.98
53651;BME280;39552;45.776;15.892;2022-08-01T07:57:26;100248.28;;;25.21;61.45
53651;BME280;39552;45.776;15.892;2022-08-01T07:59:53;100249.44;;;25.26;60.80
53651;BME280;39552;45.776;15.892;2022-08-01T08:02:20;100246.25;;;25.53;60.16
53651;BME280;39552;45.776;15.892;2022-08-01T08:04:47;100227.44;;;25.48;60.11
53651;BME280;39552;45.776;15.892;2022-08-01T08:07:15;100233.91;;;25.55;59.77
53651;BME280;39552;45.776;15.892;2022-08-01T08:09:43;100222.56;;;25.80;59.06
53651;BME280;39552;45.776;15.892;2022-08-01T08:12:16;100244.34;;;26.13;57.04
53651;BME280;39552;45.776;15.892;2022-08-01T08:14:43;100248.75;;;26.22;55.44
53651;BME280;39552;45.776;15.892;2022-08-01T08:17:10;100252.34;;;26.37;55.98
53651;BME280;39552;45.776;15.892;2022-08-01T08:19:37;100251.06;;;26.55;55.43
53651;BME280;39552;45.776;15.892;2022-08-01T08:22:05;100253.81;;;26.70;54.00
53651;BME280;39552;45.776;15.892;2022-08-01T08:24:33;100247.53;;;26.82;53.06
53651;BME280;39552;45.776;15.892;2022-08-01T08:27:03;100253.34;;;26.66;50.01
53651;BME280;39552;45.776;15.892;2022-08-01T08:29:30;100251.25;;;26.68;51.17
53651;BME280;39552;45.776;15.892;2022-08-01T08:31:58;100256.41;;;26.93;52.92
53651;BME280;39552;45.776;15.892;2022-08-01T08:34:26;100250.72;;;27.01;52.71
53651;BME280;39552;45.776;15.892;2022-08-01T08:36:53;100259.19;;;26.93;52.70
53651;BME280;39552;45.776;15.892;2022-08-01T08:39:21;100255.81;;;26.97;54.28
53651;BME280;39552;45.776;15.892;2022-08-01T08:41:48;100251.09;;;26.98;52.24
53651;BME280;39552;45.776;15.892;2022-08-01T08:44:17;100262.63;;;26.95;53.10
53651;BME280;39552;45.776;15.892;2022-08-01T08:46:45;100257.69;;;27.18;50.55
53651;BME280;39552;45.776;15.892;2022-08-01T08:49:15;100252.81;;;27.20;51.24
53651;BME280;39552;45.776;15.892;2022-08-01T08:51:43;100253.75;;;27.28;51.84
53651;BME280;39552;45.776;15.892;2022-08-01T08:54:14;100256.44;;;27.21;53.84
53651;BME280;39552;45.776;15.892;2022-08-01T08:56:42;100270.31;;;27.21;52.98
53651;BME280;39552;45.776;15.892;2022-08-01T08:59:11;100271.16;;;27.21;53.73
53651;BME280;39552;45.776;15.892;2022-08-01T09:01:40;100271.78;;;27.17;55.31
53651;BME280;39552;45.776;15.892;2022-08-01T09:04:06;100254.28;;;26.95;53.19
53651;BME280;39552;45.776;15.892;2022-08-01T09:06:34;100267.09;;;27.17;53.14
53651;BME280;39552;45.776;15.892;2022-08-01T09:09:01;100258.25;;;27.07;52.31
53651;BME280;39552;45.776;15.892;2022-08-01T09:11:28;100266.84;;;27.12;52.94
53651;BME280;39552;45.776;15.892;2022-08-01T09:14:05;100263.78;;;27.29;54.37
53651;BME280;39552;45.776;15.892;2022-08-01T09:16:33;100260.38;;;27.26;54.78
53651;BME280;39552;45.776;15.892;2022-08-01T09:19:10;100256.78;;;27.33;53.54
53651;BME280;39552;45.776;15.892;2022-08-01T09:21:58;100250.28;;;27.47;52.23
53651;BME280;39552;45.776;15.892;2022-08-01T09:24:25;100255.41;;;27.50;54.36
53651;BME280;39552;45.776;15.892;2022-08-01T09:26:56;100243.06;;;27.53;53.68
53651;BME280;39552;45.776;15.892;2022-08-01T09:29:26;100238.44;;;27.67;52.48
53651;BME280;39552;45.776;15.892;2022-08-01T09:32:05;100239.41;;;27.52;52.30
53651;BME280;39552;45.776;15.892;2022-08-01T09:34:34;100229.75;;;27.48;51.39
53651;BME280;39552;45.776;15.892;2022-08-01T09:37:02;100217.38;;;27.51;50.33
53651;BME280;39552;45.776;15.892;2022-08-01T09:39:33;100219.38;;;27.63;51.18
53651;BME280;39552;45.776;15.892;2022-08-01T09:42:00;100231.84;;;27.74;51.65
53651;BME280;39552;45.776;15.892;2022-08-01T09:44:38;100229.75;;;27.83;51.41
53651;BME280;39552;45.776;15.892;2022-08-01T09:47:10;100230.31;;;27.72;49.58
53651;BME280;39552;45.776;15.892;2022-08-01T09:49:43;100221.19;;;27.43;49.12
53651;BME280;39552;45.776;15.892;2022-08-01T09:52:20;100220.38;;;27.49;50.53
53651;BME280;39552;45.776;15.892;2022-08-01T09:54:56;100215.31;;;27.66;50.84
53651;BME280;39552;45.776;15.892;2022-08-01T09:57:23;100209.84;;;27.44;49.63
53651;BME280;39552;45.776;15.892;2022-08-01T09:59:51;100218.16;;;27.73;51.15
53651;BME280;39552;45.776;15.892;2022-08-01T10:02:30;100208.78;;;27.80;49.34
53651;BME280;39552;45.776;15.892;2022-08-01T10:04:59;100206.03;;;27.87;48.53
53651;BME280;39552;45.776;15.892;2022-08-01T10:07:29;100205.88;;;27.89;48.40
53651;BME280;39552;45.776;15.892;2022-08-01T10:10:13;100205.53;;;28.12;49.22
53651;BME280;39552;45.776;15.892;2022-08-01T10:12:41;100193.13;;;28.14;47.26
53651;BME280;39552;45.776;15.892;2022-08-01T10:15:13;100201.22;;;28.02;45.89
53651;BME280;39552;45.776;15.892;2022-08-01T10:17:46;100202.75;;;28.05;45.16
53651;BME280;39552;45.776;15.892;2022-08-01T10:20:20;100191.28;;;28.35;47.19
53651;BME280;39552;45.776;15.892;2022-08-01T10:22:59;100199.47;;;28.50;44.91
53651;BME280;39552;45.776;15.892;2022-08-01T10:25:29;100197.63;;;28.15;44.41
53651;BME280;39552;45.776;15.892;2022-08-01T10:28:14;100194.53;;;27.90;44.44
53651;BME280;39552;45.776;15.892;2022-08-01T10:30:44;100193.13;;;28.14;44.90
53651;BME280;39552;45.776;15.892;2022-08-01T10:33:15;100192.47;;;28.06;45.69
53651;BME280;39552;45.776;15.892;2022-08-01T10:36:04;100191.31;;;28.41;44.71
53651;BME280;39552;45.776;15.892;2022-08-01T10:38:34;100186.22;;;28.58;43.80
53651;BME280;39552;45.776;15.892;2022-08-01T10:41:03;100192.56;;;28.39;43.25
53651;BME280;39552;45.776;15.892;2022-08-01T10:43:32;100196.22;;;28.39;43.62
53651;BME280;39552;45.776;15.892;2022-08-01T10:46:02;100165.56;;;28.19;44.00
53651;BME280;39552;45.776;15.892;2022-08-01T10:48:49;100178.91;;;28.51;44.70
53651;BME280;39552;45.776;15.892;2022-08-01T10:51:20;100181.25;;;28.47;44.04
53651;BME280;39552;45.776;15.892;2022-08-01T10:53:48;100178.31;;;28.55;44.68
53651;BME280;39552;45.776;15.892;2022-08-01T10:56:20;100160.09;;;28.53;45.19
53651;BME280;39552;45.776;15.892;2022-08-01T10:59:01;100163.50;;;28.55;44.21
53651;BME280;39552;45.776;15.892;2022-08-01T11:01:37;100160.34;;;28.71;44.08
53651;BME280;39552;45.776;15.892;2022-08-01T11:04:12;100161.19;;;28.85;44.49
53651;BME280;39552;45.776;15.892;2022-08-01T11:06:52;100160.78;;;28.95;44.00
53651;BME280;39552;45.776;15.892;2022-08-01T11:09:26;100132.91;;;28.81;44.94
53651;BME280;39552;45.776;15.892;2022-08-01T11:12:05;100152.22;;;29.23;45.92
53651;BME280;39552;45.776;15.892;2022-08-01T11:14:33;100144.28;;;28.87;44.73
53651;BME280;39552;45.776;15.892;2022-08-01T11:17:30;100151.97;;;28.91;45.72
53651;BME280;39552;45.776;15.892;2022-08-01T11:20:05;100144.22;;;28.40;48.82
53651;BME280;39552;45.776;15.892;2022-08-01T11:26:20;100146.44;;;28.98;45.12
53651;BME280;39552;45.776;15.892;2022-08-01T11:29:16;100119.09;;;28.20;48.21
53651;BME280;39552;45.776;15.892;2022-08-01T11:31:48;100129.72;;;28.71;47.33
53651;BME280;39552;45.776;15.892;2022-08-01T11:34:15;100132.06;;;28.94;44.80
53651;BME280;39552;45.776;15.892;2022-08-01T11:36:42;100139.13;;;28.63;46.83
53651;BME280;39552;45.776;15.892;2022-08-01T11:39:30;100130.78;;;29.04;47.80
53651;BME280;39552;45.776;15.892;2022-08-01T11:42:18;100128.84;;;29.04;46.78
53651;BME280;39552;45.776;15.892;2022-08-01T11:44:49;100105.72;;;29.04;45.34
53651;BME280;39552;45.776;15.892;2022-08-01T11:47:16;100122.44;;;28.77;47.94
53651;BME280;39552;45.776;15.892;2022-08-01T11:49:48;100107.88;;;28.61;48.71
53651;BME280;39552;45.776;15.892;2022-08-01T11:52:16;100119.81;;;29.09;47.36
53651;BME280;39552;45.776;15.892;2022-08-01T11:54:46;100113.09;;;29.56;46.00
53651;BME280;39552;45.776;15.892;2022-08-01T11:57:14;100103.38;;;29.86;44.04
53651;BME280;39552;45.776;15.892;2022-08-01T11:59:43;100108.16;;;29.58;42.08
53651;BME280;39552;45.776;15.892;2022-08-01T12:02:31;100102.84;;;29.50;43.61
53651;BME280;39552;45.776;15.892;2022-08-01T12:04:59;100091.28;;;29.47;44.13
53651;BME280;39552;45.776;15.892;2022-08-01T12:07:28;100089.34;;;29.47;42.56
53651;BME280;39552;45.776;15.892;2022-08-01T12:09:59;100082.75;;;29.35;43.47
53651;BME280;39552;45.776;15.892;2022-08-01T12:12:27;100084.94;;;29.78;43.06
53651;BME280;39552;45.776;15.892;2022-08-01T12:14:56;100087.25;;;29.94;42.21
53651;BME280;39552;45.776;15.892;2022-08-01T12:17:31;100078.31;;;29.79;39.65
53651;BME280;39552;45.776;15.892;2022-08-01T12:19:58;100078.31;;;29.79;40.04
53651;BME280;39552;45.776;15.892;2022-08-01T12:22:25;100075.00;;;29.95;39.26
53651;BME280;39552;45.776;15.892;2022-08-01T12:24:53;100072.75;;;30.11;38.46
53651;BME280;39552;45.776;15.892;2022-08-01T12:27:29;100067.31;;;30.23;39.56
53651;BME280;39552;45.776;15.892;2022-08-01T12:29:57;100068.97;;;30.37;39.08
53651;BME280;39552;45.776;15.892;2022-08-01T12:32:26;100072.69;;;30.81;39.30
53651;BME280;39552;45.776;15.892;2022-08-01T12:35:03;100065.19;;;30.50;38.77
53651;BME280;39552;45.776;15.892;2022-08-01T12:37:30;100063.53;;;30.67;38.46
53651;BME280;39552;45.776;15.892;2022-08-01T12:39:57;100061.97;;;30.53;37.16
53651;BME280;39552;45.776;15.892;2022-08-01T12:42:24;100053.16;;;30.74;37.50
53651;BME280;39552;45.776;15.892;2022-08-01T12:44:53;100044.47;;;30.64;36.28
53651;BME280;39552;45.776;15.892;2022-08-01T12:47:20;100048.06;;;30.71;39.12
53651;BME280;39552;45.776;15.892;2022-08-01T12:49:48;100035.34;;;30.75;36.30
53651;BME280;39552;45.776;15.892;2022-08-01T12:52:15;100029.81;;;30.69;37.18
53651;BME280;39552;45.776;15.892;2022-08-01T12:55:15;100037.00;;;30.83;38.06
53651;BME280;39552;45.776;15.892;2022-08-01T12:57:44;100016.53;;;30.64;36.37